Hector International Airport
KFAR : now visible

Airfield :











YOU CAN JOIN US ON...

 
LOGIN :

Register | Disclaimer

   EN    FR    IT 

 









Legend :    VFR   Marginal VFR   IFR   Intensive IFR   Very Intensive IFR
Visi :
Ceiling :
>= 8 km
>= 3000ft
5 to 8 km
1000 to 3000 ft
1500m to 5 km
500 to 1000 ft
800 to 1500m
200 to 500 ft
< 800m
< 200 ft
Symbols :   Thunderstorms  Fog  Heavy snow  Heavy precipitations  Wind > 20 kt






- Airport Elevation : 902 ft
- IATA code : FAR


KFAR - Hector International

CURRENT METAR :
  • 122353Z 15017G25KT 10SM FEW034 BKN110 M07/M12 A2992 RMK AO2 PK WND 15030/2327 SLP154 T10671117 11067 21094 56021

EXPIRED METARs :
  • 122253Z 15017G25KT 10SM BKN035 OVC110 M07/M12 A2995 RMK AO2 PK WND 14031/2235 SLP164 T10671122
  • 122153Z 15018G33KT 10SM SCT120 M07/M12 A2995 RMK AO2 PK WND 16036/2119 SLP165 T10671122

TAF KFAR
Valid from the 13 at 00:00 until the 14 at 00:00 UTC


122330Z 1300/1324 15017G25KT P6SM BKN035 OVC110
FM130100 16015KT P6SM BKN035
FM130900 17007KT 5SM -SN OVC025
FM131400 30009KT P6SM OVC050
FM131600 33012G20KT P6SM BKN050



MET'MAP, your aeronautical weather chart ! - Copyright ORBIFLY December 2007 - Disclaimer

ORBIFLY MET'MAP TEAM :

Programming & Development : Alexandra Zaïnal
Concept & Development : Baudouin d'Aumeries
Co-Development & Prog : Marc-Olivier Méhu
Technical & hardware support : Manuel Goepfert

Contact : metmap@orbifly.com




SOURCES & CREDITS :

   NOAA       Earth
Advisory